This is the latest recevied weather packets stored in our database for station/object KP4FJC. If no packets are shown the sender has not sent any weather packets the latest 10 day(s).
| Time | Temp. | Humidity | Pressure | Rain* | Wind** | Luminosity | Snow |
|---|---|---|---|---|---|---|---|
| 1778085182 | 32.78° C | 54% | 1019 hPa | 0 mm | - | 954 W/m² | - |
| 1778084878 | 32.78° C | 53% | 1019.3 hPa | 0 mm | - | 958 W/m² | - |
| 1778084576 | 33.33° C | 52% | 1019 hPa | 0 mm | - | 261 W/m² | - |
| 1778084273 | 32.22° C | 53% | 1019.3 hPa | 0 mm | - | 875 W/m² | - |
| 1778083970 | 32.78° C | 53% | 1019.2 hPa | 0 mm | - | 984 W/m² | - |
| 1778083668 | 32.78° C | 52% | 1019.4 hPa | 0 mm | - | 962 W/m² | - |
| 1778083364 | 32.22° C | 55% | 1019.6 hPa | 0 mm | - | 959 W/m² | - |
| 1778083063 | 32.22° C | 53% | 1019.5 hPa | 0 mm | - | 953 W/m² | - |
| 1778082759 | 31.67° C | 57% | 1019.6 hPa | 0 mm | - | 938 W/m² | - |
| 1778081627 | 31.67° C | 56% | 1019.5 hPa | 0 mm | - | 929 W/m² | - |
| 1778081324 | 31.67° C | 58% | 1019.8 hPa | 0 mm | - | 931 W/m² | - |
| 1778081021 | 31.67° C | 57% | 1020 hPa | 0 mm | - | 927 W/m² | - |
| 1778080720 | 31.67° C | 57% | 1019.8 hPa | 0 mm | - | 930 W/m² | - |
| 1778080416 | 32.78° C | 56% | 1020 hPa | 0 mm | - | 949 W/m² | - |
| 1778080113 | 32.22° C | 58% | 1019.9 hPa | 0 mm | - | 393 W/m² | - |
| 1778079810 | 31.11° C | 61% | 1020.1 hPa | 0 mm | - | 903 W/m² | - |
| 1778079507 | 31.67° C | 61% | 1019.9 hPa | 0 mm | - | 778 W/m² | - |
| 1778079203 | 31.11° C | 60% | 1020.1 hPa | 0 mm | - | 664 W/m² | - |
| 1778078901 | 31.67° C | 60% | 1019.9 hPa | 0 mm | - | 819 W/m² | - |
| 1778078597 | 31.67° C | 60% | 1020.1 hPa | 0 mm | - | 907 W/m² | - |
| 1778078296 | 31.67° C | 62% | 1020 hPa | 0 mm | - | 209 W/m² | - |
| 1778077992 | 31.11° C | 62% | 1020.1 hPa | 0 mm | - | 904 W/m² | - |
| 1778077691 | 31.11° C | 63% | 1020 hPa | 0 mm | - | 782 W/m² | - |
| 1778077388 | 30.56° C | 63% | 1020 hPa | 0 mm | - | 407 W/m² | - |
| 1778077086 | 30° C | 68% | 1020.2 hPa | 0 mm | - | 827 W/m² | - |
* Rain latest hour (hover to see other rain measurements)
** Current wind speed in m/s (hover to see current wind gust speed)